Time;durP1;ratioP1;P1;durP2;ratioP2;P2;SDS_P1;SDS_P2;PMS_P1;PMS_P2;Temp;Humidity;BMP_temperature;BMP_pressure;BME280_temperature;BME280_humidity;BME280_pressure;Samples;Min_cycle;Max_cycle;Signal;HPM_P1;HPM_P2
2023/11/24 00:00:17;;;;;;;0.00;0.00;;;;;;;4.16;100.00;95627.97;1030492;28;20022;-72
2023/11/24 00:00:48;;;;;;;0.10;0.10;;;;;;;4.22;100.00;95634.84;1030442;28;20489;-72
2023/11/24 00:01:19;;;;;;;1.30;0.80;;;;;;;4.15;100.00;95624.56;1029972;28;20262;-72
2023/11/24 00:01:50;;;;;;;0.95;0.85;;;;;;;4.17;100.00;95627.72;1026205;28;20019;-72
2023/11/24 00:02:20;;;;;;;0.63;0.63;;;;;;;4.16;100.00;95626.16;1030673;28;20281;-71
2023/11/24 00:02:51;;;;;;;0.38;0.30;;;;;;;4.20;100.00;95627.28;1030746;28;20029;-73
2023/11/24 00:03:21;;;;;;;1.60;1.30;;;;;;;4.21;100.00;95638.47;1030710;28;20022;-70
2023/11/24 00:03:51;;;;;;;0.10;0.10;;;;;;;4.19;100.00;95640.47;1027372;28;20023;-72
2023/11/24 00:04:22;;;;;;;0.10;0.10;;;;;;;4.17;100.00;95632.13;1026960;28;20401;-71
2023/11/24 00:04:53;;;;;;;0.10;0.10;;;;;;;4.19;100.00;95630.09;1022479;29;20027;-71
2023/11/24 00:05:23;;;;;;;0.20;0.20;;;;;;;4.14;100.00;95625.56;1022046;29;20035;-71
2023/11/24 00:05:56;;;;;;;0.32;0.32;;;;;;;4.23;100.00;95639.03;1026968;28;20262;-71
2023/11/24 00:06:26;;;;;;;0.63;0.38;;;;;;;4.21;100.00;95630.66;1027372;28;20769;-71
2023/11/24 00:06:57;;;;;;;0.40;0.40;;;;;;;4.24;100.00;95638.00;1030947;28;20292;-74
2023/11/24 00:07:29;;;;;;;3.85;0.45;;;;;;;4.22;100.00;95637.44;1034064;28;20105;-72
2023/11/24 00:07:59;;;;;;;0.32;0.32;;;;;;;4.16;100.00;95630.56;1026528;28;20285;-72
2023/11/24 00:08:30;;;;;;;0.98;0.98;;;;;;;4.22;100.00;95640.03;1018981;29;20279;-72
2023/11/24 00:09:00;;;;;;;0.03;0.03;;;;;;;4.16;100.00;95622.78;1029783;28;20029;-74
2023/11/24 00:09:31;;;;;;;1.40;0.88;;;;;;;4.19;100.00;95637.88;1022608;28;20638;-73
2023/11/24 00:10:02;;;;;;;0.32;0.32;;;;;;;4.17;100.00;95627.72;1022772;28;20110;-71
2023/11/24 00:10:33;;;;;;;0.00;0.00;;;;;;;4.21;100.00;95635.84;1030317;28;20025;-72
2023/11/24 00:11:04;;;;;;;0.25;0.25;;;;;;;4.23;100.00;95637.22;1034819;28;20323;-71
2023/11/24 00:11:35;;;;;;;0.30;0.30;;;;;;;4.24;100.00;95632.81;1029946;28;20305;-72
2023/11/24 00:12:06;;;;;;;0.10;0.10;;;;;;;4.23;100.00;95623.44;1026529;28;20025;-72
2023/11/24 00:12:36;;;;;;;0.68;0.63;;;;;;;4.23;100.00;95634.63;1031172;28;20030;-72
2023/11/24 00:13:09;;;;;;;0.10;0.10;;;;;;;4.19;100.00;95630.91;1034795;28;20715;-71
2023/11/24 00:13:40;;;;;;;0.75;0.47;;;;;;;4.20;100.00;95622.09;1030769;28;20019;-71
2023/11/24 00:14:10;;;;;;;4.43;0.90;;;;;;;4.24;100.00;95612.81;1030813;28;20713;-72
2023/11/24 00:14:40;;;;;;;1.58;0.88;;;;;;;4.27;100.00;95621.97;1026390;28;20031;-72
2023/11/24 00:15:14;;;;;;;0.30;0.30;;;;;;;4.27;100.00;95611.59;1028062;28;20022;-71
2023/11/24 00:15:45;;;;;;;0.73;0.70;;;;;;;4.24;100.00;95604.25;1026611;28;20816;-72
2023/11/24 00:16:15;;;;;;;0.57;0.50;;;;;;;4.37;100.00;95600.63;1030896;28;20033;-73
2023/11/24 00:16:47;;;;;;;0.63;0.50;;;;;;;4.34;100.00;95596.69;1034822;28;20348;-72
2023/11/24 00:17:19;;;;;;;0.30;0.30;;;;;;;4.33;100.00;95579.53;1030917;28;20576;-71
2023/11/24 00:17:50;;;;;;;3.00;0.50;;;;;;;4.38;100.00;95597.81;1026205;28;20424;-73
2023/11/24 00:18:21;;;;;;;0.90;0.28;;;;;;;4.38;100.00;95592.59;1023452;28;20263;-74
2023/11/24 00:18:51;;;;;;;1.50;0.95;;;;;;;4.39;100.00;95598.59;1026793;28;20266;-72
2023/11/24 00:19:22;;;;;;;0.00;0.00;;;;;;;4.37;100.00;95593.63;1027122;28;20483;-72
2023/11/24 00:19:52;;;;;;;0.77;0.77;;;;;;;4.36;100.00;95588.66;1031334;28;20030;-72
2023/11/24 00:20:25;;;;;;;0.85;0.85;;;;;;;4.40;100.00;95590.59;1024087;28;20435;-72
2023/11/24 00:21:06;;;;;;;0.00;0.00;;;;;;;4.38;100.00;95573.63;1028663;28;20023;-72
2023/11/24 00:21:37;;;;;;;0.08;0.08;;;;;;;4.41;100.00;95583.56;1031839;28;20328;-72
2023/11/24 00:22:07;;;;;;;0.43;0.28;;;;;;;4.35;100.00;95563.69;1032531;28;20956;-72
2023/11/24 00:22:37;;;;;;;0.82;0.73;;;;;;;4.44;100.00;95591.72;1035357;28;20276;-73
2023/11/24 00:23:08;;;;;;;0.00;0.00;;;;;;;4.45;100.00;95576.91;1029494;28;20188;-72
2023/11/24 00:23:38;;;;;;;0.75;0.30;;;;;;;4.45;100.00;95576.91;1026847;28;20023;-72
2023/11/24 00:24:09;;;;;;;1.13;0.47;;;;;;;4.42;100.00;95575.53;1030354;28;20057;-72
2023/11/24 00:24:39;;;;;;;0.75;0.75;;;;;;;4.46;100.00;95589.69;1038815;28;20033;-73
2023/11/24 00:25:10;;;;;;;0.45;0.45;;;;;;;4.47;100.00;95580.06;1030555;28;20042;-72
2023/11/24 00:25:40;;;;;;;0.43;0.43;;;;;;;4.46;100.00;95570.69;1030304;28;20026;-71
2023/11/24 00:26:11;;;;;;;0.17;0.17;;;;;;;4.42;100.00;95572.16;1034584;28;20629;-72
2023/11/24 00:26:41;;;;;;;0.00;0.00;;;;;;;4.47;100.00;95565.28;1038532;28;20033;-73
2023/11/24 00:27:12;;;;;;;0.10;0.10;;;;;;;4.45;100.00;95562.09;1034575;28;20029;-73
2023/11/24 00:27:42;;;;;;;0.10;0.10;;;;;;;4.54;100.00;95582.56;1030622;28;20029;-72
2023/11/24 00:28:13;;;;;;;0.30;0.30;;;;;;;4.47;100.00;95564.50;1030547;28;20023;-71
2023/11/24 00:28:43;;;;;;;0.00;0.00;;;;;;;4.48;100.00;95566.84;1034551;28;20509;-73
2023/11/24 00:29:14;;;;;;;0.85;0.85;;;;;;;4.56;100.00;95575.31;1034759;28;20441;-71
2023/11/24 00:29:44;;;;;;;1.55;0.77;;;;;;;4.53;100.00;95565.38;1026636;28;20022;-72
2023/11/24 00:30:15;;;;;;;0.70;0.70;;;;;;;4.60;100.00;95573.84;1030569;28;20026;-71
2023/11/24 00:30:45;;;;;;;0.50;0.50;;;;;;;4.63;100.00;95574.19;1029741;28;20033;-73
2023/11/24 00:31:16;;;;;;;0.32;0.32;;;;;;;4.64;100.00;95560.16;1026644;28;20022;-72
2023/11/24 00:31:46;;;;;;;0.63;0.60;;;;;;;4.65;100.00;95566.94;1030075;28;20026;-72
2023/11/24 00:32:17;;;;;;;0.30;0.30;;;;;;;4.66;100.00;95568.53;1026324;28;20027;-72
2023/11/24 00:32:50;;;;;;;6.07;0.43;;;;;;;4.67;100.00;95571.91;1030244;28;20553;-73
2023/11/24 00:33:21;;;;;;;0.05;0.05;;;;;;;4.67;100.00;95558.91;1026569;28;20031;-72
2023/11/24 00:33:52;;;;;;;0.55;0.55;;;;;;;4.68;100.00;95578.69;1026523;28;20262;-72
2023/11/24 00:34:23;;;;;;;0.00;0.00;;;;;;;4.69;100.00;95564.66;1022870;28;20110;-72
2023/11/24 00:34:53;;;;;;;0.93;0.77;;;;;;;4.72;100.00;95564.22;1022788;28;20263;-71
2023/11/24 00:35:24;;;;;;;0.30;0.30;;;;;;;4.72;100.00;95562.41;1026418;28;20034;-72
2023/11/24 00:35:55;;;;;;;0.82;0.82;;;;;;;4.74;100.00;95562.19;1022979;28;20088;-72
2023/11/24 00:36:25;;;;;;;1.38;1.27;;;;;;;4.73;100.00;95568.41;1018494;29;20419;-72
2023/11/24 00:36:58;;;;;;;0.38;0.38;;;;;;;4.73;100.00;95564.00;1022620;29;20255;-72
2023/11/24 00:37:28;;;;;;;0.00;0.00;;;;;;;4.69;100.00;95551.66;1023324;28;20434;-72
2023/11/24 00:37:59;;;;;;;0.50;0.50;;;;;;;4.76;100.00;95561.94;1027035;28;20265;-72
2023/11/24 00:38:29;;;;;;;0.17;0.17;;;;;;;4.70;100.00;95535.88;1026675;28;20467;-72
2023/11/24 00:39:00;;;;;;;0.40;0.30;;;;;;;4.75;100.00;95540.34;1026463;28;20469;-72
2023/11/24 00:39:30;;;;;;;1.02;0.90;;;;;;;4.75;100.00;95545.56;1022467;28;20782;-72
2023/11/24 00:40:07;;;;;;;0.10;0.10;;;;;;;4.76;100.00;95541.94;1022624;29;20031;-71
2023/11/24 00:40:40;;;;;;;0.55;0.55;;;;;;;4.72;100.00;95546.00;1026398;28;20421;-72
2023/11/24 00:41:13;;;;;;;1.42;0.57;;;;;;;4.74;100.00;95541.38;1023886;28;20334;-71
2023/11/24 00:41:43;;;;;;;0.00;0.00;;;;;;;4.74;100.00;95541.38;1029089;28;20813;-71
2023/11/24 00:42:16;;;;;;;0.20;0.20;;;;;;;4.69;100.00;95530.88;1034658;28;20265;-72
2023/11/24 00:42:46;;;;;;;1.65;1.10;;;;;;;4.74;100.00;95536.19;1030436;28;20702;-72
2023/11/24 00:43:16;;;;;;;0.65;0.65;;;;;;;4.69;100.00;95533.47;1031101;28;20262;-72
2023/11/24 00:43:47;;;;;;;1.00;1.00;;;;;;;4.72;100.00;95543.41;1032830;28;20038;-72
2023/11/24 00:44:17;;;;;;;0.17;0.17;;;;;;;4.55;100.00;95514.75;1028733;28;20022;-72
2023/11/24 00:44:48;;;;;;;0.45;0.45;;;;;;;4.74;100.00;95562.19;1020699;29;20036;-72
2023/11/24 00:45:19;;;;;;;0.50;0.50;;;;;;;4.74;100.00;95559.59;1021401;29;20016;-73
2023/11/24 00:45:49;;;;;;;0.55;0.38;;;;;;;4.75;100.00;95555.16;1020847;28;20031;-72
2023/11/24 00:46:21;;;;;;;0.50;0.45;;;;;;;4.76;100.00;95547.13;1022993;28;20943;-73
2023/11/24 00:46:52;;;;;;;0.75;0.55;;;;;;;4.76;100.00;95547.13;1022958;28;20515;-73
2023/11/24 00:47:22;;;;;;;0.65;0.25;;;;;;;4.77;100.00;95547.94;1018645;29;20263;-72
2023/11/24 00:47:53;;;;;;;0.63;0.63;;;;;;;4.76;100.00;95548.94;1022947;28;20019;-72
2023/11/24 00:48:24;;;;;;;0.00;0.00;;;;;;;4.79;100.00;95549.28;1022858;28;20114;-72
2023/11/24 00:48:56;;;;;;;0.10;0.10;;;;;;;4.75;100.00;95560.38;1026713;28;20022;-72
2023/11/24 00:49:26;;;;;;;0.90;0.90;;;;;;;4.77;100.00;95547.94;1026461;28;20034;-72
2023/11/24 00:49:57;;;;;;;0.22;0.22;;;;;;;4.74;100.00;95538.78;1026809;28;20262;-72
2023/11/24 00:50:27;;;;;;;1.13;0.47;;;;;;;4.79;100.00;95546.66;1030349;28;20029;-72
2023/11/24 00:50:58;;;;;;;0.25;0.25;;;;;;;4.77;100.00;95543.53;1022918;28;20127;-71
2023/11/24 00:51:28;;;;;;;0.00;0.00;;;;;;;4.76;100.00;95547.13;1029637;28;20128;-73
2023/11/24 00:52:00;;;;;;;0.28;0.28;;;;;;;4.76;100.00;95543.75;1026348;28;20018;-72
2023/11/24 00:52:30;;;;;;;0.82;0.82;;;;;;;4.77;100.00;95533.13;1022775;28;20255;-72
2023/11/24 00:53:01;;;;;;;0.22;0.22;;;;;;;4.65;100.00;95527.16;1024102;28;20030;-73
2023/11/24 00:53:32;;;;;;;0.08;0.08;;;;;;;4.80;100.00;95548.28;1030709;28;20082;-72
2023/11/24 00:54:02;;;;;;;0.28;0.28;;;;;;;4.78;100.00;95545.09;1022466;29;20023;-73
2023/11/24 00:54:33;;;;;;;0.43;0.43;;;;;;;4.76;100.00;95544.53;1027022;28;20474;-72
2023/11/24 00:55:04;;;;;;;0.08;0.08;;;;;;;4.78;100.00;95550.31;1030246;28;20019;-72
2023/11/24 00:55:34;;;;;;;1.33;1.13;;;;;;;4.77;100.00;95543.53;1026268;28;20868;-72
2023/11/24 00:56:05;;;;;;;0.10;0.10;;;;;;;4.77;100.00;95533.13;1026561;28;20034;-72
2023/11/24 00:56:36;;;;;;;0.10;0.10;;;;;;;4.80;100.00;95542.28;1030230;28;20065;-72
2023/11/24 00:57:06;;;;;;;0.43;0.38;;;;;;;4.80;100.00;95521.50;1022188;29;20539;-72
2023/11/24 00:57:37;;;;;;;0.30;0.30;;;;;;;4.77;100.00;95533.13;1021355;29;20024;-72
2023/11/24 00:58:07;;;;;;;0.13;0.13;;;;;;;4.85;100.00;95542.38;1014390;29;20024;-72
2023/11/24 00:58:38;;;;;;;0.25;0.20;;;;;;;4.83;100.00;95545.22;1022237;28;20031;-72
2023/11/24 00:59:08;;;;;;;0.15;0.15;;;;;;;4.83;100.00;95547.81;1022652;28;20407;-74
2023/11/24 00:59:38;;;;;;;0.08;0.03;;;;;;;4.84;100.00;95541.59;1030621;28;20034;-73
2023/11/24 01:00:09;;;;;;;1.30;0.40;;;;;;;4.82;100.00;95515.03;1030392;28;20022;-72
2023/11/24 01:00:40;;;;;;;0.17;0.17;;;;;;;4.84;100.00;95528.59;1026434;28;20034;-72
2023/11/24 01:01:11;;;;;;;0.10;0.10;;;;;;;4.81;100.00;95518.66;1030316;28;20026;-72
2023/11/24 01:01:42;;;;;;;0.20;0.20;;;;;;;4.81;100.00;95523.84;1021390;28;20023;-71
2023/11/24 01:02:13;;;;;;;0.20;0.20;;;;;;;4.76;100.00;95521.13;1026487;28;20273;-72
2023/11/24 01:02:44;;;;;;;0.03;0.03;;;;;;;4.81;100.00;95531.66;1026234;28;20498;-72
2023/11/24 01:03:15;;;;;;;0.63;0.45;;;;;;;4.83;100.00;95531.41;1026707;28;20377;-72
2023/11/24 01:03:46;;;;;;;0.55;0.52;;;;;;;4.82;100.00;95535.81;1026215;28;20270;-72
2023/11/24 01:04:17;;;;;;;0.13;0.13;;;;;;;4.81;100.00;95529.03;1022716;29;20274;-72
2023/11/24 01:04:47;;;;;;;0.00;0.00;;;;;;;4.81;100.00;95528.25;1022463;29;20043;-72
2023/11/24 01:05:19;;;;;;;0.32;0.32;;;;;;;4.80;100.00;95519.69;1023497;28;20534;-71
2023/11/24 01:05:49;;;;;;;1.13;0.43;;;;;;;4.76;100.00;95523.72;1030555;28;20030;-73
2023/11/24 01:06:20;;;;;;;0.17;0.17;;;;;;;4.80;100.00;95514.47;1030740;28;20960;-71
2023/11/24 01:06:50;;;;;;;0.38;0.38;;;;;;;4.80;100.00;95514.47;1034401;28;20636;-72
2023/11/24 01:07:20;;;;;;;0.57;0.30;;;;;;;4.81;100.00;95520.47;1026456;28;20426;-71
2023/11/24 01:07:51;;;;;;;1.10;0.57;;;;;;;4.80;100.00;95517.06;1026299;28;20048;-72
2023/11/24 01:08:21;;;;;;;0.30;0.30;;;;;;;4.79;100.00;95517.28;1026550;28;20026;-72
2023/11/24 01:08:52;;;;;;;0.22;0.22;;;;;;;4.79;100.00;95509.50;1024685;28;20031;-71
2023/11/24 01:09:24;;;;;;;0.65;0.65;;;;;;;4.80;100.00;95509.28;1030303;28;20509;-72
2023/11/24 01:09:54;;;;;;;0.20;0.20;;;;;;;4.78;100.00;95506.13;1030557;28;20085;-70
2023/11/24 01:10:24;;;;;;;0.10;0.10;;;;;;;4.79;100.00;95509.50;1030027;28;20380;-72
2023/11/24 01:10:57;;;;;;;0.45;0.45;;;;;;;4.78;100.00;95513.13;1026713;28;20031;-73
2023/11/24 01:11:28;;;;;;;0.57;0.57;;;;;;;4.80;100.00;95511.09;1026035;28;20035;-72
2023/11/24 01:11:58;;;;;;;0.10;0.10;;;;;;;4.82;100.00;95516.84;1026492;28;20266;-72
2023/11/24 01:12:32;;;;;;;0.20;0.20;;;;;;;4.82;100.00;95509.03;1025984;28;20030;-72
2023/11/24 01:13:02;;;;;;;0.20;0.20;;;;;;;4.75;100.00;95508.38;1023216;28;20031;-72
2023/11/24 01:13:35;;;;;;;0.10;0.10;;;;;;;4.81;100.00;95505.66;1026686;28;20266;-71
2023/11/24 01:14:05;;;;;;;0.57;0.35;;;;;;;4.82;100.00;95509.81;1022424;29;20035;-72
2023/11/24 01:14:36;;;;;;;0.30;0.30;;;;;;;4.81;100.00;95503.06;1022874;29;20282;-71
2023/11/24 01:15:08;;;;;;;0.30;0.30;;;;;;;4.79;100.00;95493.91;1019411;28;20035;-71
2023/11/24 01:15:42;;;;;;;1.50;1.40;;;;;;;4.83;100.00;95508.00;1027735;28;20070;-71
2023/11/24 01:16:14;;;;;;;0.03;0.03;;;;;;;4.78;100.00;95498.31;1027347;28;20577;-72
2023/11/24 01:16:45;;;;;;;0.00;0.00;;;;;;;4.80;100.00;95509.28;1026669;28;20571;-72
2023/11/24 01:17:16;;;;;;;0.32;0.20;;;;;;;4.82;100.00;95509.81;1027451;28;20328;-72
2023/11/24 01:17:46;;;;;;;0.70;0.70;;;;;;;4.80;100.00;95495.50;1026548;28;20070;-71
2023/11/24 01:18:18;;;;;;;0.68;0.60;;;;;;;4.81;100.00;95505.66;1023098;28;20414;-72
2023/11/24 01:18:49;;;;;;;0.65;0.65;;;;;;;4.82;100.00;95503.84;1026271;28;20910;-71
2023/11/24 01:19:20;;;;;;;0.38;0.38;;;;;;;4.81;100.00;95497.06;1022970;28;20307;-72
2023/11/24 01:19:51;;;;;;;1.75;0.47;;;;;;;4.81;100.00;95490.06;1022765;28;20035;-72
2023/11/24 01:20:22;;;;;;;0.70;0.68;;;;;;;4.82;100.00;95490.84;1022196;29;20654;-71
2023/11/24 01:20:52;;;;;;;0.15;0.15;;;;;;;4.81;100.00;95486.66;1022844;28;20540;-73
2023/11/24 01:21:23;;;;;;;0.10;0.10;;;;;;;4.71;100.00;95476.88;1022337;28;20259;-73
2023/11/24 01:21:56;;;;;;;0.30;0.30;;;;;;;4.76;100.00;95489.94;1028881;28;20390;-72
2023/11/24 01:22:27;;;;;;;0.60;0.52;;;;;;;4.76;100.00;95471.75;1025708;28;20031;-72
2023/11/24 01:22:57;;;;;;;0.22;0.22;;;;;;;4.80;100.00;95465.09;1022954;28;20251;-72
2023/11/24 01:23:28;;;;;;;1.17;0.35;;;;;;;4.71;100.00;95475.06;1026635;28;20086;-72
2023/11/24 01:24:02;;;;;;;0.20;0.20;;;;;;;4.82;100.00;95477.84;1026757;28;20030;-72
2023/11/24 01:24:32;;;;;;;0.15;0.15;;;;;;;4.80;100.00;95485.88;1034909;28;20029;-72
2023/11/24 01:25:04;;;;;;;0.17;0.17;;;;;;;4.78;100.00;95480.13;1038687;28;20279;-72
2023/11/24 01:25:34;;;;;;;0.65;0.65;;;;;;;4.80;100.00;95478.09;1030176;28;20011;-71
2023/11/24 01:26:05;;;;;;;0.22;0.22;;;;;;;4.78;100.00;95479.34;1034544;28;20939;-71
2023/11/24 01:26:37;;;;;;;0.47;0.47;;;;;;;4.80;100.00;95479.91;1026444;28;20022;-72
2023/11/24 01:27:07;;;;;;;1.45;0.25;;;;;;;4.74;100.00;95463.41;1026352;28;20027;-71
2023/11/24 01:27:38;;;;;;;0.40;0.40;;;;;;;4.81;100.00;95478.88;1026414;28;20378;-72
2023/11/24 01:28:10;;;;;;;0.50;0.50;;;;;;;4.76;100.00;95474.34;1030295;28;20034;-73
2023/11/24 01:28:40;;;;;;;0.57;0.55;;;;;;;4.81;100.00;95477.06;1022284;29;20035;-73
2023/11/24 01:29:13;;;;;;;0.68;0.68;;;;;;;4.82;100.00;95478.63;1018622;29;20248;-73
2023/11/24 01:29:43;;;;;;;0.00;0.00;;;;;;;4.83;100.00;95485.44;1018709;29;20028;-72
2023/11/24 01:30:15;;;;;;;0.65;0.65;;;;;;;4.81;100.00;95481.47;1022984;28;20258;-70
2023/11/24 01:30:45;;;;;;;1.13;0.47;;;;;;;4.80;100.00;95478.09;1018513;29;20023;-73
2023/11/24 01:31:16;;;;;;;0.75;0.63;;;;;;;4.82;100.00;95480.44;1018617;29;20263;-72
2023/11/24 01:31:46;;;;;;;0.00;0.00;;;;;;;4.81;100.00;95471.88;1018876;29;20463;-71
2023/11/24 01:32:17;;;;;;;0.57;0.57;;;;;;;4.78;100.00;95481.94;1019230;28;20432;-72
2023/11/24 01:32:47;;;;;;;0.20;0.20;;;;;;;4.78;100.00;95482.72;1022948;28;20016;-71
2023/11/24 01:33:18;;;;;;;0.10;0.10;;;;;;;4.76;100.00;95476.16;1027301;28;20011;-72
2023/11/24 01:33:49;;;;;;;1.67;1.08;;;;;;;4.75;100.00;95472.00;1023142;28;20026;-71
2023/11/24 01:34:19;;;;;;;0.17;0.17;;;;;;;4.77;100.00;95465.56;1023246;28;20011;-72
2023/11/24 01:34:49;;;;;;;1.10;1.10;;;;;;;4.78;100.00;95484.53;1023041;29;20023;-72
2023/11/24 01:35:20;;;;;;;0.43;0.43;;;;;;;4.72;100.00;95473.25;1027126;28;20027;-71
2023/11/24 01:35:50;;;;;;;1.65;0.45;;;;;;;4.76;100.00;95478.75;1023494;28;20019;-72
2023/11/24 01:36:21;;;;;;;0.90;0.43;;;;;;;4.75;100.00;95477.97;1027099;28;20705;-73
2023/11/24 01:36:51;;;;;;;0.28;0.28;;;;;;;4.76;100.00;95473.56;1023070;29;20440;-71
2023/11/24 01:37:22;;;;;;;0.00;0.00;;;;;;;4.76;100.00;95476.94;1019351;29;20020;-72
2023/11/24 01:37:53;;;;;;;0.20;0.20;;;;;;;4.76;100.00;95469.16;1019112;29;20011;-72
2023/11/24 01:38:23;;;;;;;1.75;0.95;;;;;;;4.73;100.00;95452.25;1023419;28;20519;-73
2023/11/24 01:38:54;;;;;;;0.75;0.40;;;;;;;4.77;100.00;95470.75;1027220;28;20018;-71
2023/11/24 01:39:26;;;;;;;0.10;0.10;;;;;;;4.62;100.00;95449.66;1027303;28;20657;-72
2023/11/24 01:39:56;;;;;;;0.05;0.05;;;;;;;4.78;100.00;95461.16;1023419;29;20263;-72
2023/11/24 01:40:27;;;;;;;0.32;0.32;;;;;;;4.80;100.00;95470.28;1023458;28;20263;-72
2023/11/24 01:40:57;;;;;;;0.35;0.35;;;;;;;4.76;100.00;95456.16;1023263;28;20427;-73
2023/11/24 01:41:28;;;;;;;0.10;0.10;;;;;;;4.75;100.00;95459.00;1027090;28;20018;-73
2023/11/24 01:41:58;;;;;;;0.00;0.00;;;;;;;4.78;100.00;95469.72;1023237;28;20023;-72
2023/11/24 01:42:29;;;;;;;1.70;0.55;;;;;;;4.80;100.00;95472.88;1027110;28;20558;-72
2023/11/24 01:43:00;;;;;;;0.43;0.43;;;;;;;4.80;100.00;95462.50;1026373;28;20815;-72
2023/11/24 01:43:30;;;;;;;0.40;0.40;;;;;;;4.79;100.00;95463.50;1019247;29;20023;-72
2023/11/24 01:44:01;;;;;;;0.35;0.35;;;;;;;4.77;100.00;95460.34;1019295;29;20272;-70
2023/11/24 01:44:31;;;;;;;0.30;0.30;;;;;;;4.78;100.00;95469.72;1020991;29;20527;-73
2023/11/24 01:45:04;;;;;;;0.10;0.10;;;;;;;4.81;100.00;95456.25;1022859;29;20027;-72
2023/11/24 01:45:34;;;;;;;0.38;0.38;;;;;;;4.80;100.00;95467.69;1015437;29;20444;-71
2023/11/24 01:46:05;;;;;;;0.65;0.30;;;;;;;4.80;100.00;95459.91;1015980;29;20268;-71
2023/11/24 01:46:35;;;;;;;0.10;0.10;;;;;;;4.78;100.00;95467.13;1023463;29;20531;-72
2023/11/24 01:47:06;;;;;;;0.03;0.03;;;;;;;4.78;100.00;95454.13;1022694;29;20043;-72
2023/11/24 01:47:37;;;;;;;0.80;0.80;;;;;;;4.73;100.00;95448.84;1023169;29;20020;-72
2023/11/24 01:48:08;;;;;;;0.30;0.30;;;;;;;4.74;100.00;95450.41;1019444;29;20156;-72
2023/11/24 01:48:38;;;;;;;0.20;0.20;;;;;;;4.76;100.00;95445.75;1023099;29;20499;-72
2023/11/24 01:49:10;;;;;;;0.10;0.10;;;;;;;4.80;100.00;95448.72;1023045;29;20282;-72
2023/11/24 01:49:40;;;;;;;0.00;0.00;;;;;;;4.78;100.00;95451.53;1023273;28;20972;-74
2023/11/24 01:50:11;;;;;;;0.13;0.13;;;;;;;4.82;100.00;95452.63;1023071;29;20255;-72
2023/11/24 01:50:42;;;;;;;0.10;0.10;;;;;;;4.82;100.00;95452.63;1023484;29;20024;-73
2023/11/24 01:51:12;;;;;;;0.00;0.00;;;;;;;4.80;100.00;95439.09;1022978;29;20403;-72
2023/11/24 01:51:43;;;;;;;0.32;0.32;;;;;;;4.79;100.00;95447.91;1026753;28;20326;-71
2023/11/24 01:52:14;;;;;;;0.65;0.65;;;;;;;4.80;100.00;95443.50;1027719;28;20023;-72
2023/11/24 01:52:44;;;;;;;0.17;0.17;;;;;;;4.75;100.00;95446.00;1019070;29;20501;-73
2023/11/24 01:53:15;;;;;;;2.45;0.32;;;;;;;4.80;100.00;95449.50;1019133;29;20083;-72
2023/11/24 01:53:45;;;;;;;1.65;0.75;;;;;;;4.80;100.00;95454.69;1019427;29;20027;-73
2023/11/24 01:54:17;;;;;;;0.10;0.10;;;;;;;4.78;100.00;95454.13;1019349;29;20016;-72
2023/11/24 01:54:47;;;;;;;0.40;0.32;;;;;;;4.72;100.00;95442.84;1015704;29;20164;-73
2023/11/24 01:55:23;;;;;;;0.70;0.57;;;;;;;4.73;100.00;95444.44;1023082;29;20266;-74
2023/11/24 01:55:56;;;;;;;0.63;0.60;;;;;;;4.79;100.00;95454.91;1027218;28;20054;-74
2023/11/24 01:56:26;;;;;;;0.10;0.10;;;;;;;4.81;100.00;95453.66;1023065;29;20351;-73
2023/11/24 01:56:57;;;;;;;0.10;0.10;;;;;;;4.76;100.00;95443.16;1027231;28;20258;-72
2023/11/24 01:57:28;;;;;;;0.52;0.52;;;;;;;4.81;100.00;95445.09;1019164;29;20023;-72
2023/11/24 01:57:58;;;;;;;0.98;0.43;;;;;;;4.79;100.00;95455.69;1019113;29;20019;-71
2023/11/24 01:58:29;;;;;;;0.55;0.55;;;;;;;4.78;100.00;95456.72;1026985;28;20010;-73
2023/11/24 01:59:00;;;;;;;0.40;0.30;;;;;;;4.84;100.00;95455.81;1031986;28;20022;-72
2023/11/24 01:59:31;;;;;;;0.10;0.10;;;;;;;4.81;100.00;95453.66;1024680;29;20383;-72
2023/11/24 02:00:04;;;;;;;0.50;0.50;;;;;;;4.83;100.00;95454.22;1028141;28;20026;-72
2023/11/24 02:00:34;;;;;;;0.28;0.28;;;;;;;4.84;100.00;95455.03;1023871;29;20270;-71
2023/11/24 02:01:05;;;;;;;0.38;0.38;;;;;;;4.79;100.00;95447.91;1023739;28;20687;-72
2023/11/24 02:01:35;;;;;;;0.30;0.30;;;;;;;4.85;100.00;95459.97;1022220;28;20054;-72
2023/11/24 02:02:06;;;;;;;0.13;0.13;;;;;;;4.80;100.00;95462.50;1025823;28;20018;-73
2023/11/24 02:02:41;;;;;;;0.00;0.00;;;;;;;4.87;100.00;95454.56;1023116;29;20062;-72
2023/11/24 02:03:11;;;;;;;0.82;0.82;;;;;;;4.84;100.00;95455.03;1019565;29;20279;-73
2023/11/24 02:03:45;;;;;;;0.10;0.10;;;;;;;4.81;100.00;95445.88;1019140;29;20283;-71
2023/11/24 02:04:16;;;;;;;0.75;0.40;;;;;;;4.87;100.00;95449.34;1025324;28;20533;-73
2023/11/24 02:04:47;;;;;;;0.10;0.10;;;;;;;4.84;100.00;95439.44;1027261;28;20314;-72
2023/11/24 02:05:18;;;;;;;1.67;0.98;;;;;;;4.86;100.00;95448.56;1024790;28;20615;-72
2023/11/24 02:05:48;;;;;;;0.00;0.00;;;;;;;4.89;100.00;95452.50;1031415;28;20314;-72
2023/11/24 02:06:19;;;;;;;0.20;0.20;;;;;;;4.87;100.00;95439.75;1023160;29;20031;-72
2023/11/24 02:06:49;;;;;;;0.25;0.25;;;;;;;4.87;100.00;95444.94;1027227;28;20034;-72
2023/11/24 02:07:22;;;;;;;0.10;0.10;;;;;;;4.83;100.00;95437.81;1031348;28;20041;-72
2023/11/24 02:07:53;;;;;;;0.00;0.00;;;;;;;4.77;100.00;95423.97;1027106;28;20086;-71
2023/11/24 02:08:24;;;;;;;0.35;0.30;;;;;;;4.78;100.00;95438.53;1023568;29;20306;-71
2023/11/24 02:08:55;;;;;;;0.88;0.77;;;;;;;4.81;100.00;95442.47;1019177;29;20047;-72
2023/11/24 02:09:27;;;;;;;0.85;0.77;;;;;;;4.86;100.00;95442.56;1026993;28;20270;-72
2023/11/24 02:09:58;;;;;;;0.85;0.85;;;;;;;4.88;100.00;95450.94;1027290;28;20042;-74
2023/11/24 02:10:28;;;;;;;0.30;0.30;;;;;;;4.87;100.00;95444.94;1026915;28;20777;-72
2023/11/24 02:10:59;;;;;;;1.40;1.30;;;;;;;4.85;100.00;95451.38;1023142;29;20032;-72
2023/11/24 02:11:29;;;;;;;0.38;0.20;;;;;;;4.85;100.00;95452.16;1022886;29;20322;-72
2023/11/24 02:12:00;;;;;;;1.10;0.22;;;;;;;4.85;100.00;95452.16;1026758;28;20030;-72
2023/11/24 02:12:31;;;;;;;0.00;0.00;;;;;;;4.87;100.00;95451.97;1023392;28;20038;-72
2023/11/24 02:13:01;;;;;;;0.10;0.10;;;;;;;4.87;100.00;95449.34;1019210;29;20705;-72
2023/11/24 02:13:32;;;;;;;0.40;0.13;;;;;;;4.85;100.00;95451.38;1027126;28;20479;-73
2023/11/24 02:14:02;;;;;;;0.45;0.45;;;;;;;4.88;100.00;95436.13;1023114;29;20035;-72
2023/11/24 02:14:33;;;;;;;0.32;0.32;;;;;;;4.90;100.00;95438.50;1022174;29;20050;-71
2023/11/24 02:15:06;;;;;;;0.45;0.40;;;;;;;4.83;100.00;95437.81;1023193;29;20113;-72
2023/11/24 02:15:39;;;;;;;0.40;0.40;;;;;;;4.89;100.00;95442.88;1020829;29;20382;-72
2023/11/24 02:16:09;;;;;;;0.08;0.08;;;;;;;4.90;100.00;95444.47;1023712;28;21044;-71
2023/11/24 02:16:40;;;;;;;0.60;0.57;;;;;;;4.88;100.00;95436.13;1027364;28;20310;-72
2023/11/24 02:17:10;;;;;;;1.10;0.60;;;;;;;4.91;100.00;95440.06;1024224;28;20035;-72
2023/11/24 02:17:41;;;;;;;0.80;0.80;;;;;;;4.92;100.00;95432.00;1027208;28;20027;-72
2023/11/24 02:18:12;;;;;;;0.10;0.10;;;;;;;4.93;100.00;95418.00;1031334;28;20030;-72
2023/11/24 02:18:42;;;;;;;2.92;1.25;;;;;;;4.91;100.00;95424.47;1023127;28;20035;-72
2023/11/24 02:19:14;;;;;;;0.03;0.03;;;;;;;4.95;100.00;95430.78;1030868;28;20280;-71
2023/11/24 02:19:47;;;;;;;0.22;0.22;;;;;;;4.88;100.00;95428.31;1027094;28;20034;-71
2023/11/24 02:20:17;;;;;;;0.55;0.55;;;;;;;4.90;100.00;95422.91;1028313;28;20266;-73
2023/11/24 02:20:48;;;;;;;0.55;0.40;;;;;;;4.94;100.00;95426.59;1023247;29;20724;-73
2023/11/24 02:21:19;;;;;;;0.32;0.32;;;;;;;4.91;100.00;95425.25;1028013;28;20098;-70
2023/11/24 02:21:49;;;;;;;0.85;0.52;;;;;;;4.94;100.00;95419.59;1022115;29;20035;-72
2023/11/24 02:22:20;;;;;;;0.82;0.82;;;;;;;4.95;100.00;95425.56;1023154;28;20030;-73
2023/11/24 02:22:51;;;;;;;0.28;0.28;;;;;;;4.93;100.00;95432.81;1026636;28;20478;-72
2023/11/24 02:23:21;;;;;;;0.70;0.57;;;;;;;4.89;100.00;95422.09;1026229;28;20118;-72
2023/11/24 02:23:53;;;;;;;0.00;0.00;;;;;;;4.87;100.00;95413.75;1030990;28;20039;-73
2023/11/24 02:24:23;;;;;;;0.40;0.40;;;;;;;4.93;100.00;95427.63;1023278;29;20055;-71
2023/11/24 02:24:54;;;;;;;0.30;0.20;;;;;;;4.90;100.00;95422.91;1023743;29;20271;-72
2023/11/24 02:25:24;;;;;;;0.00;0.00;;;;;;;4.84;100.00;95414.22;1023599;28;20035;-72
2023/11/24 02:25:54;;;;;;;0.68;0.28;;;;;;;4.89;100.00;95429.88;1035157;28;20520;-72